sensor_id;sensor_type;location;lat;lon;timestamp;P1;durP1;ratioP1;P2;durP2;ratioP2
16977;SDS011;8605;52.548;4.918;2022-08-01T00:03:50;3.88;;;3.20;;
16977;SDS011;8605;52.548;4.918;2022-08-01T00:08:55;4.88;;;2.45;;
16977;SDS011;8605;52.548;4.918;2022-08-01T00:13:58;3.78;;;2.30;;
16977;SDS011;8605;52.548;4.918;2022-08-01T00:19:01;3.50;;;1.92;;
16977;SDS011;8605;52.548;4.918;2022-08-01T00:24:05;3.80;;;1.95;;
16977;SDS011;8605;52.548;4.918;2022-08-01T00:29:15;4.22;;;2.65;;
16977;SDS011;8605;52.548;4.918;2022-08-01T00:34:38;7.05;;;2.95;;
16977;SDS011;8605;52.548;4.918;2022-08-01T00:39:42;8.50;;;2.58;;
16977;SDS011;8605;52.548;4.918;2022-08-01T00:44:46;4.88;;;2.97;;
16977;SDS011;8605;52.548;4.918;2022-08-01T00:49:48;3.88;;;2.53;;
16977;SDS011;8605;52.548;4.918;2022-08-01T00:54:53;3.70;;;2.58;;
16977;SDS011;8605;52.548;4.918;2022-08-01T00:59:56;9.45;;;3.80;;
16977;SDS011;8605;52.548;4.918;2022-08-01T01:05:00;9.57;;;4.13;;
16977;SDS011;8605;52.548;4.918;2022-08-01T01:10:06;5.13;;;3.45;;
16977;SDS011;8605;52.548;4.918;2022-08-01T01:15:17;8.88;;;4.60;;
16977;SDS011;8605;52.548;4.918;2022-08-01T01:20:26;11.25;;;4.40;;
16977;SDS011;8605;52.548;4.918;2022-08-01T01:25:46;8.05;;;4.15;;
16977;SDS011;8605;52.548;4.918;2022-08-01T01:30:58;10.93;;;5.28;;
16977;SDS011;8605;52.548;4.918;2022-08-01T01:36:05;9.35;;;4.18;;
16977;SDS011;8605;52.548;4.918;2022-08-01T01:41:12;6.55;;;4.40;;
16977;SDS011;8605;52.548;4.918;2022-08-01T01:46:18;15.05;;;4.80;;
16977;SDS011;8605;52.548;4.918;2022-08-01T01:51:25;7.32;;;3.70;;
16977;SDS011;8605;52.548;4.918;2022-08-01T01:56:30;8.80;;;3.05;;
16977;SDS011;8605;52.548;4.918;2022-08-01T02:01:34;6.00;;;3.40;;
16977;SDS011;8605;52.548;4.918;2022-08-01T02:06:58;3.83;;;2.25;;
16977;SDS011;8605;52.548;4.918;2022-08-01T02:12:01;3.08;;;1.88;;
16977;SDS011;8605;52.548;4.918;2022-08-01T02:17:11;4.32;;;2.42;;
16977;SDS011;8605;52.548;4.918;2022-08-01T02:22:16;2.40;;;1.70;;
16977;SDS011;8605;52.548;4.918;2022-08-01T02:27:24;3.88;;;1.90;;
16977;SDS011;8605;52.548;4.918;2022-08-01T02:37:55;2.20;;;1.30;;
16977;SDS011;8605;52.548;4.918;2022-08-01T02:43:00;2.42;;;1.40;;
16977;SDS011;8605;52.548;4.918;2022-08-01T02:48:12;4.75;;;1.40;;
16977;SDS011;8605;52.548;4.918;2022-08-01T02:53:16;7.45;;;1.42;;
16977;SDS011;8605;52.548;4.918;2022-08-01T02:58:21;5.57;;;1.60;;
16977;SDS011;8605;52.548;4.918;2022-08-01T03:03:32;2.05;;;1.58;;
16977;SDS011;8605;52.548;4.918;2022-08-01T03:08:35;3.10;;;1.48;;
16977;SDS011;8605;52.548;4.918;2022-08-01T03:13:38;4.03;;;1.88;;
16977;SDS011;8605;52.548;4.918;2022-08-01T03:18:44;2.38;;;1.73;;
16977;SDS011;8605;52.548;4.918;2022-08-01T03:23:47;3.05;;;1.90;;
16977;SDS011;8605;52.548;4.918;2022-08-01T03:28:56;4.55;;;2.78;;
16977;SDS011;8605;52.548;4.918;2022-08-01T03:34:03;3.17;;;1.80;;
16977;SDS011;8605;52.548;4.918;2022-08-01T03:39:06;2.72;;;2.20;;
16977;SDS011;8605;52.548;4.918;2022-08-01T03:44:13;6.65;;;2.95;;
16977;SDS011;8605;52.548;4.918;2022-08-01T03:49:20;5.28;;;2.55;;
16977;SDS011;8605;52.548;4.918;2022-08-01T03:54:25;10.20;;;4.15;;
16977;SDS011;8605;52.548;4.918;2022-08-01T03:59:31;6.57;;;4.20;;
16977;SDS011;8605;52.548;4.918;2022-08-01T04:04:36;10.23;;;3.83;;
16977;SDS011;8605;52.548;4.918;2022-08-01T04:09:38;10.68;;;4.88;;
16977;SDS011;8605;52.548;4.918;2022-08-01T04:14:43;6.28;;;3.17;;
16977;SDS011;8605;52.548;4.918;2022-08-01T04:19:48;11.23;;;3.83;;
16977;SDS011;8605;52.548;4.918;2022-08-01T04:24:51;16.13;;;4.25;;
16977;SDS011;8605;52.548;4.918;2022-08-01T04:29:58;8.68;;;4.00;;
16977;SDS011;8605;52.548;4.918;2022-08-01T04:35:03;11.48;;;4.90;;
16977;SDS011;8605;52.548;4.918;2022-08-01T04:40:29;9.18;;;3.85;;
16977;SDS011;8605;52.548;4.918;2022-08-01T04:45:32;15.63;;;3.88;;
16977;SDS011;8605;52.548;4.918;2022-08-01T04:50:36;9.00;;;3.33;;
16977;SDS011;8605;52.548;4.918;2022-08-01T04:55:39;12.77;;;4.47;;
16977;SDS011;8605;52.548;4.918;2022-08-01T05:00:42;9.40;;;3.27;;
16977;SDS011;8605;52.548;4.918;2022-08-01T05:05:47;9.13;;;3.50;;
16977;SDS011;8605;52.548;4.918;2022-08-01T05:10:50;9.33;;;3.00;;
16977;SDS011;8605;52.548;4.918;2022-08-01T05:15:58;17.40;;;3.70;;
16977;SDS011;8605;52.548;4.918;2022-08-01T05:21:09;16.80;;;4.70;;
16977;SDS011;8605;52.548;4.918;2022-08-01T05:26:12;12.97;;;3.03;;
16977;SDS011;8605;52.548;4.918;2022-08-01T05:31:16;9.63;;;3.70;;
16977;SDS011;8605;52.548;4.918;2022-08-01T05:36:20;9.02;;;3.25;;
16977;SDS011;8605;52.548;4.918;2022-08-01T05:41:23;10.10;;;3.40;;
16977;SDS011;8605;52.548;4.918;2022-08-01T05:46:26;8.33;;;3.07;;
16977;SDS011;8605;52.548;4.918;2022-08-01T05:51:30;9.73;;;3.83;;
16977;SDS011;8605;52.548;4.918;2022-08-01T05:56:33;10.07;;;2.83;;
16977;SDS011;8605;52.548;4.918;2022-08-01T06:01:36;10.45;;;3.20;;
16977;SDS011;8605;52.548;4.918;2022-08-01T06:06:40;15.18;;;3.28;;
16977;SDS011;8605;52.548;4.918;2022-08-01T06:11:43;15.02;;;3.53;;
16977;SDS011;8605;52.548;4.918;2022-08-01T06:16:46;6.18;;;2.53;;
16977;SDS011;8605;52.548;4.918;2022-08-01T06:21:51;9.20;;;4.07;;
16977;SDS011;8605;52.548;4.918;2022-08-01T06:26:55;8.15;;;3.45;;
16977;SDS011;8605;52.548;4.918;2022-08-01T06:31:58;8.55;;;2.22;;
16977;SDS011;8605;52.548;4.918;2022-08-01T06:37:02;11.05;;;3.75;;
16977;SDS011;8605;52.548;4.918;2022-08-01T06:42:07;18.10;;;3.85;;
16977;SDS011;8605;52.548;4.918;2022-08-01T06:47:10;14.20;;;2.60;;
16977;SDS011;8605;52.548;4.918;2022-08-01T06:52:15;11.77;;;2.58;;
16977;SDS011;8605;52.548;4.918;2022-08-01T06:57:18;16.65;;;3.08;;
16977;SDS011;8605;52.548;4.918;2022-08-01T07:02:21;10.93;;;3.08;;
16977;SDS011;8605;52.548;4.918;2022-08-01T07:07:25;11.43;;;2.42;;
16977;SDS011;8605;52.548;4.918;2022-08-01T07:12:28;11.82;;;2.35;;
16977;SDS011;8605;52.548;4.918;2022-08-01T07:17:31;8.20;;;2.35;;
16977;SDS011;8605;52.548;4.918;2022-08-01T07:22:35;6.00;;;2.22;;
16977;SDS011;8605;52.548;4.918;2022-08-01T07:27:38;10.20;;;2.72;;
16977;SDS011;8605;52.548;4.918;2022-08-01T07:32:41;21.83;;;3.50;;
16977;SDS011;8605;52.548;4.918;2022-08-01T07:37:45;11.77;;;3.95;;
16977;SDS011;8605;52.548;4.918;2022-08-01T07:42:49;5.15;;;1.92;;
16977;SDS011;8605;52.548;4.918;2022-08-01T07:47:52;9.60;;;2.42;;
16977;SDS011;8605;52.548;4.918;2022-08-01T07:52:58;7.63;;;2.17;;
16977;SDS011;8605;52.548;4.918;2022-08-01T07:58:01;12.27;;;2.42;;
16977;SDS011;8605;52.548;4.918;2022-08-01T08:03:03;3.53;;;1.63;;
16977;SDS011;8605;52.548;4.918;2022-08-01T08:08:08;6.80;;;2.30;;
16977;SDS011;8605;52.548;4.918;2022-08-01T08:13:11;5.18;;;1.55;;
16977;SDS011;8605;52.548;4.918;2022-08-01T08:18:14;9.45;;;1.65;;
16977;SDS011;8605;52.548;4.918;2022-08-01T08:23:20;4.93;;;2.60;;
16977;SDS011;8605;52.548;4.918;2022-08-01T08:28:43;4.63;;;1.52;;
16977;SDS011;8605;52.548;4.918;2022-08-01T08:33:46;11.95;;;2.38;;
16977;SDS011;8605;52.548;4.918;2022-08-01T08:38:50;7.90;;;1.85;;
16977;SDS011;8605;52.548;4.918;2022-08-01T08:43:55;6.28;;;1.50;;
16977;SDS011;8605;52.548;4.918;2022-08-01T08:49:05;10.90;;;1.83;;
16977;SDS011;8605;52.548;4.918;2022-08-01T08:54:22;5.03;;;1.40;;
16977;SDS011;8605;52.548;4.918;2022-08-01T08:59:32;4.97;;;1.42;;
16977;SDS011;8605;52.548;4.918;2022-08-01T09:04:36;3.88;;;1.00;;
16977;SDS011;8605;52.548;4.918;2022-08-01T09:09:42;6.72;;;1.05;;
16977;SDS011;8605;52.548;4.918;2022-08-01T09:14:48;4.75;;;1.60;;
16977;SDS011;8605;52.548;4.918;2022-08-01T09:19:55;3.30;;;1.52;;
16977;SDS011;8605;52.548;4.918;2022-08-01T09:25:03;4.53;;;1.67;;
16977;SDS011;8605;52.548;4.918;2022-08-01T09:30:09;12.00;;;2.38;;
16977;SDS011;8605;52.548;4.918;2022-08-01T09:35:23;2.45;;;1.73;;
16977;SDS011;8605;52.548;4.918;2022-08-01T09:40:44;5.07;;;1.80;;
16977;SDS011;8605;52.548;4.918;2022-08-01T09:45:49;5.00;;;1.55;;
16977;SDS011;8605;52.548;4.918;2022-08-01T09:50:59;5.05;;;1.30;;
16977;SDS011;8605;52.548;4.918;2022-08-01T09:56:12;7.40;;;3.03;;
16977;SDS011;8605;52.548;4.918;2022-08-01T10:01:15;8.95;;;1.73;;
16977;SDS011;8605;52.548;4.918;2022-08-01T10:06:24;4.95;;;1.30;;
16977;SDS011;8605;52.548;4.918;2022-08-01T10:11:29;4.55;;;1.50;;
16977;SDS011;8605;52.548;4.918;2022-08-01T10:16:37;5.30;;;2.25;;
16977;SDS011;8605;52.548;4.918;2022-08-01T10:21:43;4.45;;;1.70;;
16977;SDS011;8605;52.548;4.918;2022-08-01T10:27:02;2.05;;;1.13;;
16977;SDS011;8605;52.548;4.918;2022-08-01T10:32:13;4.03;;;1.17;;
16977;SDS011;8605;52.548;4.918;2022-08-01T10:37:20;2.03;;;1.45;;
16977;SDS011;8605;52.548;4.918;2022-08-01T10:42:29;6.07;;;1.50;;
16977;SDS011;8605;52.548;4.918;2022-08-01T10:47:38;1.92;;;1.17;;
16977;SDS011;8605;52.548;4.918;2022-08-01T10:53:12;3.50;;;1.40;;
16977;SDS011;8605;52.548;4.918;2022-08-01T10:58:45;1.58;;;1.13;;
16977;SDS011;8605;52.548;4.918;2022-08-01T11:03:56;2.75;;;1.00;;
16977;SDS011;8605;52.548;4.918;2022-08-01T11:09:03;2.53;;;1.52;;
16977;SDS011;8605;52.548;4.918;2022-08-01T11:14:10;6.93;;;1.38;;
16977;SDS011;8605;52.548;4.918;2022-08-01T11:19:14;13.25;;;2.83;;
16977;SDS011;8605;52.548;4.918;2022-08-01T11:24:21;8.88;;;1.20;;
16977;SDS011;8605;52.548;4.918;2022-08-01T11:30:22;5.60;;;2.05;;
16977;SDS011;8605;52.548;4.918;2022-08-01T11:35:27;4.85;;;1.65;;
16977;SDS011;8605;52.548;4.918;2022-08-01T11:40:31;3.13;;;1.05;;
16977;SDS011;8605;52.548;4.918;2022-08-01T11:45:47;4.00;;;1.33;;
16977;SDS011;8605;52.548;4.918;2022-08-01T11:50:52;5.93;;;1.08;;
16977;SDS011;8605;52.548;4.918;2022-08-01T11:55:56;2.50;;;1.33;;
16977;SDS011;8605;52.548;4.918;2022-08-01T12:01:02;7.18;;;1.63;;
16977;SDS011;8605;52.548;4.918;2022-08-01T12:06:07;7.22;;;1.42;;
16977;SDS011;8605;52.548;4.918;2022-08-01T12:11:10;5.40;;;2.78;;
16977;SDS011;8605;52.548;4.918;2022-08-01T12:16:15;4.13;;;1.95;;
16977;SDS011;8605;52.548;4.918;2022-08-01T12:21:21;4.35;;;1.42;;
16977;SDS011;8605;52.548;4.918;2022-08-01T12:26:27;12.43;;;4.53;;
16977;SDS011;8605;52.548;4.918;2022-08-01T12:31:42;8.65;;;2.95;;
16977;SDS011;8605;52.548;4.918;2022-08-01T12:42:18;3.85;;;1.10;;
16977;SDS011;8605;52.548;4.918;2022-08-01T12:47:22;3.75;;;1.25;;
16977;SDS011;8605;52.548;4.918;2022-08-01T12:52:26;1.30;;;1.10;;
16977;SDS011;8605;52.548;4.918;2022-08-01T12:57:32;4.57;;;1.50;;
16977;SDS011;8605;52.548;4.918;2022-08-01T13:02:45;2.00;;;1.20;;
16977;SDS011;8605;52.548;4.918;2022-08-01T13:07:50;7.75;;;1.10;;
16977;SDS011;8605;52.548;4.918;2022-08-01T13:12:54;3.05;;;1.40;;
16977;SDS011;8605;52.548;4.918;2022-08-01T13:18:00;4.90;;;1.05;;
16977;SDS011;8605;52.548;4.918;2022-08-01T13:23:10;6.50;;;1.08;;
16977;SDS011;8605;52.548;4.918;2022-08-01T13:28:15;3.65;;;0.80;;
16977;SDS011;8605;52.548;4.918;2022-08-01T13:33:20;7.95;;;1.33;;
16977;SDS011;8605;52.548;4.918;2022-08-01T13:38:25;1.65;;;0.82;;
16977;SDS011;8605;52.548;4.918;2022-08-01T13:43:48;3.28;;;1.17;;
16977;SDS011;8605;52.548;4.918;2022-08-01T13:49:01;1.58;;;1.27;;
16977;SDS011;8605;52.548;4.918;2022-08-01T13:54:16;3.40;;;1.05;;
16977;SDS011;8605;52.548;4.918;2022-08-01T13:59:22;3.03;;;1.77;;
16977;SDS011;8605;52.548;4.918;2022-08-01T14:04:26;2.38;;;0.80;;
16977;SDS011;8605;52.548;4.918;2022-08-01T14:09:29;5.72;;;1.52;;
16977;SDS011;8605;52.548;4.918;2022-08-01T14:14:33;2.78;;;0.98;;
16977;SDS011;8605;52.548;4.918;2022-08-01T14:19:37;4.68;;;1.15;;
16977;SDS011;8605;52.548;4.918;2022-08-01T14:24:46;2.72;;;1.05;;
16977;SDS011;8605;52.548;4.918;2022-08-01T14:29:50;1.83;;;0.95;;
16977;SDS011;8605;52.548;4.918;2022-08-01T14:35:06;8.98;;;1.23;;
16977;SDS011;8605;52.548;4.918;2022-08-01T14:40:09;5.40;;;1.45;;
16977;SDS011;8605;52.548;4.918;2022-08-01T14:45:13;2.65;;;0.90;;
16977;SDS011;8605;52.548;4.918;2022-08-01T14:50:17;2.92;;;1.35;;
16977;SDS011;8605;52.548;4.918;2022-08-01T14:55:20;6.65;;;1.25;;
16977;SDS011;8605;52.548;4.918;2022-08-01T15:00:26;5.75;;;1.05;;
16977;SDS011;8605;52.548;4.918;2022-08-01T15:05:31;3.45;;;0.98;;
16977;SDS011;8605;52.548;4.918;2022-08-01T15:10:34;3.00;;;0.90;;
16977;SDS011;8605;52.548;4.918;2022-08-01T15:15:37;5.50;;;1.10;;
16977;SDS011;8605;52.548;4.918;2022-08-01T15:20:44;1.67;;;0.70;;
16977;SDS011;8605;52.548;4.918;2022-08-01T15:25:48;2.85;;;0.90;;
16977;SDS011;8605;52.548;4.918;2022-08-01T15:30:51;3.35;;;1.50;;
16977;SDS011;8605;52.548;4.918;2022-08-01T15:35:55;1.92;;;0.90;;
16977;SDS011;8605;52.548;4.918;2022-08-01T15:40:58;3.38;;;1.98;;
16977;SDS011;8605;52.548;4.918;2022-08-01T15:46:02;8.68;;;1.55;;
16977;SDS011;8605;52.548;4.918;2022-08-01T15:51:07;1.85;;;0.77;;
16977;SDS011;8605;52.548;4.918;2022-08-01T15:56:10;1.10;;;0.80;;
16977;SDS011;8605;52.548;4.918;2022-08-01T16:01:15;0.90;;;0.80;;
16977;SDS011;8605;52.548;4.918;2022-08-01T16:06:19;1.98;;;1.30;;
16977;SDS011;8605;52.548;4.918;2022-08-01T16:11:22;2.78;;;1.08;;
16977;SDS011;8605;52.548;4.918;2022-08-01T16:16:30;1.90;;;0.77;;
16977;SDS011;8605;52.548;4.918;2022-08-01T16:21:36;2.20;;;0.57;;
16977;SDS011;8605;52.548;4.918;2022-08-01T16:26:39;0.98;;;0.80;;
16977;SDS011;8605;52.548;4.918;2022-08-01T16:31:43;1.85;;;0.80;;
16977;SDS011;8605;52.548;4.918;2022-08-01T16:37:07;0.90;;;0.80;;
16977;SDS011;8605;52.548;4.918;2022-08-01T16:42:10;2.45;;;0.63;;
16977;SDS011;8605;52.548;4.918;2022-08-01T16:47:13;4.05;;;0.90;;
16977;SDS011;8605;52.548;4.918;2022-08-01T16:52:17;1.15;;;0.60;;
16977;SDS011;8605;52.548;4.918;2022-08-01T16:57:20;1.92;;;0.80;;
16977;SDS011;8605;52.548;4.918;2022-08-01T17:02:23;1.40;;;0.73;;
16977;SDS011;8605;52.548;4.918;2022-08-01T17:07:27;2.70;;;1.23;;
16977;SDS011;8605;52.548;4.918;2022-08-01T17:12:31;1.92;;;0.85;;
16977;SDS011;8605;52.548;4.918;2022-08-01T17:17:38;1.30;;;0.80;;
16977;SDS011;8605;52.548;4.918;2022-08-01T17:22:45;4.53;;;0.65;;
16977;SDS011;8605;52.548;4.918;2022-08-01T17:27:50;1.48;;;0.60;;
16977;SDS011;8605;52.548;4.918;2022-08-01T17:32:54;1.75;;;0.98;;
16977;SDS011;8605;52.548;4.918;2022-08-01T17:37:58;4.43;;;3.10;;
16977;SDS011;8605;52.548;4.918;2022-08-01T17:43:01;1.63;;;0.90;;
16977;SDS011;8605;52.548;4.918;2022-08-01T17:48:07;7.10;;;1.73;;
16977;SDS011;8605;52.548;4.918;2022-08-01T17:53:17;1.88;;;1.35;;
16977;SDS011;8605;52.548;4.918;2022-08-01T17:58:24;3.42;;;1.42;;
16977;SDS011;8605;52.548;4.918;2022-08-01T18:03:47;2.90;;;1.30;;
16977;SDS011;8605;52.548;4.918;2022-08-01T18:08:52;4.97;;;1.10;;
16977;SDS011;8605;52.548;4.918;2022-08-01T18:14:02;1.65;;;0.88;;
16977;SDS011;8605;52.548;4.918;2022-08-01T18:19:07;3.72;;;1.02;;
16977;SDS011;8605;52.548;4.918;2022-08-01T18:24:12;12.93;;;7.35;;
16977;SDS011;8605;52.548;4.918;2022-08-01T18:29:16;3.03;;;1.45;;
16977;SDS011;8605;52.548;4.918;2022-08-01T18:34:39;2.00;;;0.80;;
16977;SDS011;8605;52.548;4.918;2022-08-01T18:39:46;1.45;;;0.95;;
16977;SDS011;8605;52.548;4.918;2022-08-01T18:44:52;4.30;;;1.20;;
16977;SDS011;8605;52.548;4.918;2022-08-01T18:49:55;4.93;;;1.45;;
16977;SDS011;8605;52.548;4.918;2022-08-01T18:54:59;3.53;;;0.90;;
16977;SDS011;8605;52.548;4.918;2022-08-01T19:00:03;2.85;;;1.15;;
16977;SDS011;8605;52.548;4.918;2022-08-01T19:05:07;5.18;;;1.27;;
16977;SDS011;8605;52.548;4.918;2022-08-01T19:10:14;3.80;;;2.15;;
16977;SDS011;8605;52.548;4.918;2022-08-01T19:15:17;1.42;;;0.88;;
16977;SDS011;8605;52.548;4.918;2022-08-01T19:20:21;0.70;;;0.70;;
16977;SDS011;8605;52.548;4.918;2022-08-01T19:25:27;3.67;;;1.70;;
16977;SDS011;8605;52.548;4.918;2022-08-01T19:30:30;4.78;;;1.35;;
16977;SDS011;8605;52.548;4.918;2022-08-01T19:35:34;4.40;;;1.42;;
16977;SDS011;8605;52.548;4.918;2022-08-01T19:40:39;5.10;;;2.90;;
16977;SDS011;8605;52.548;4.918;2022-08-01T19:45:45;3.70;;;1.70;;
16977;SDS011;8605;52.548;4.918;2022-08-01T19:50:48;6.15;;;1.38;;
16977;SDS011;8605;52.548;4.918;2022-08-01T19:55:54;1.85;;;1.20;;
16977;SDS011;8605;52.548;4.918;2022-08-01T20:00:57;1.92;;;0.93;;
16977;SDS011;8605;52.548;4.918;2022-08-01T20:06:00;4.72;;;1.50;;
16977;SDS011;8605;52.548;4.918;2022-08-01T20:11:11;1.20;;;1.10;;
16977;SDS011;8605;52.548;4.918;2022-08-01T20:16:22;3.72;;;1.25;;
16977;SDS011;8605;52.548;4.918;2022-08-01T20:21:26;6.63;;;1.35;;
16977;SDS011;8605;52.548;4.918;2022-08-01T20:26:30;2.78;;;1.45;;
16977;SDS011;8605;52.548;4.918;2022-08-01T20:31:34;3.08;;;1.67;;
16977;SDS011;8605;52.548;4.918;2022-08-01T20:36:44;1.92;;;1.30;;
16977;SDS011;8605;52.548;4.918;2022-08-01T20:41:58;3.85;;;1.67;;
16977;SDS011;8605;52.548;4.918;2022-08-01T20:47:03;14.48;;;1.50;;
16977;SDS011;8605;52.548;4.918;2022-08-01T20:52:06;2.97;;;1.13;;
16977;SDS011;8605;52.548;4.918;2022-08-01T20:57:18;3.53;;;1.42;;
16977;SDS011;8605;52.548;4.918;2022-08-01T21:02:29;3.45;;;1.45;;
16977;SDS011;8605;52.548;4.918;2022-08-01T21:07:36;0.88;;;0.80;;
16977;SDS011;8605;52.548;4.918;2022-08-01T21:12:43;3.83;;;1.25;;
16977;SDS011;8605;52.548;4.918;2022-08-01T21:17:51;3.75;;;1.55;;
16977;SDS011;8605;52.548;4.918;2022-08-01T21:23:04;5.65;;;2.63;;
16977;SDS011;8605;52.548;4.918;2022-08-01T21:28:18;3.67;;;2.00;;
16977;SDS011;8605;52.548;4.918;2022-08-01T21:33:22;2.70;;;1.80;;
16977;SDS011;8605;52.548;4.918;2022-08-01T21:38:28;2.42;;;1.75;;
16977;SDS011;8605;52.548;4.918;2022-08-01T21:43:34;3.50;;;1.70;;
16977;SDS011;8605;52.548;4.918;2022-08-01T21:48:39;9.35;;;1.73;;
16977;SDS011;8605;52.548;4.918;2022-08-01T21:53:45;5.22;;;1.48;;
16977;SDS011;8605;52.548;4.918;2022-08-01T21:58:53;3.03;;;1.38;;
16977;SDS011;8605;52.548;4.918;2022-08-01T22:03:59;7.20;;;1.30;;
16977;SDS011;8605;52.548;4.918;2022-08-01T22:09:05;3.57;;;1.20;;
16977;SDS011;8605;52.548;4.918;2022-08-01T22:14:09;4.47;;;1.20;;
16977;SDS011;8605;52.548;4.918;2022-08-01T22:19:15;3.27;;;1.10;;
16977;SDS011;8605;52.548;4.918;2022-08-01T22:24:38;6.38;;;2.47;;
16977;SDS011;8605;52.548;4.918;2022-08-01T22:29:44;2.60;;;1.13;;
16977;SDS011;8605;52.548;4.918;2022-08-01T22:34:47;1.77;;;0.83;;
16977;SDS011;8605;52.548;4.918;2022-08-01T22:39:50;9.55;;;2.78;;
16977;SDS011;8605;52.548;4.918;2022-08-01T22:44:57;5.40;;;1.40;;
16977;SDS011;8605;52.548;4.918;2022-08-01T22:50:05;1.43;;;1.20;;
16977;SDS011;8605;52.548;4.918;2022-08-01T22:55:09;1.53;;;1.03;;
16977;SDS011;8605;52.548;4.918;2022-08-01T23:00:14;3.57;;;1.03;;
16977;SDS011;8605;52.548;4.918;2022-08-01T23:05:19;2.37;;;1.63;;
16977;SDS011;8605;52.548;4.918;2022-08-01T23:10:23;2.00;;;1.00;;
16977;SDS011;8605;52.548;4.918;2022-08-01T23:15:28;2.20;;;0.90;;
16977;SDS011;8605;52.548;4.918;2022-08-01T23:20:31;6.85;;;1.48;;
16977;SDS011;8605;52.548;4.918;2022-08-01T23:25:35;5.50;;;1.10;;
16977;SDS011;8605;52.548;4.918;2022-08-01T23:30:40;4.15;;;1.67;;
16977;SDS011;8605;52.548;4.918;2022-08-01T23:35:43;2.67;;;1.02;;
16977;SDS011;8605;52.548;4.918;2022-08-01T23:40:46;1.43;;;0.90;;
16977;SDS011;8605;52.548;4.918;2022-08-01T23:45:51;2.83;;;1.43;;
16977;SDS011;8605;52.548;4.918;2022-08-01T23:51:05;3.43;;;1.37;;
16977;SDS011;8605;52.548;4.918;2022-08-01T23:56:11;2.20;;;1.00;;
